This is the latest recevied weather packets stored in our database for station/object N6SPP. If no packets are shown the sender has not sent any weather packets the latest 10 day(s).
| Time | Temp. | Humidity | Pressure | Rain* | Wind** | Luminosity | Snow |
|---|---|---|---|---|---|---|---|
| 1777695271 | 17.22° C | 59% | 1014.1 hPa | 0 mm | - | 0 W/m² | - |
| 1777694967 | 16.67° C | 63% | 1014 hPa | 0 mm | - | 0 W/m² | - |
| 1777694664 | 16.67° C | 63% | 1013.9 hPa | 0 mm | - | 0 W/m² | - |
| 1777694360 | 16.67° C | 64% | 1013.8 hPa | 0 mm | - | 0 W/m² | - |
| 1777694057 | 17.22° C | 63% | 1014 hPa | 0 mm | - | 0 W/m² | - |
| 1777693755 | 17.22° C | 61% | 1013.9 hPa | 0 mm | - | 0 W/m² | - |
| 1777693453 | 17.22° C | 60% | 1013.9 hPa | 0 mm | - | 0 W/m² | - |
| 1777693151 | 17.78° C | 60% | 1013.7 hPa | 0 mm | - | 0 W/m² | - |
| 1777692848 | 17.78° C | 60% | 1013.7 hPa | 0 mm | - | 0 W/m² | - |
| 1777692545 | 17.78° C | 61% | 1013.8 hPa | 0 mm | - | 0 W/m² | - |
| 1777692241 | 18.33° C | 60% | 1013.6 hPa | 0 mm | - | 0 W/m² | - |
| 1777691939 | 18.89° C | 56% | 1013.5 hPa | 0 mm | - | 0 W/m² | - |
| 1777691637 | 18.89° C | 57% | 1013.5 hPa | 0 mm | - | 0 W/m² | - |
| 1777691334 | 18.89° C | 58% | 1013.3 hPa | 0 mm | - | 1 W/m² | - |
| 1777691033 | 18.33° C | 60% | 1013.2 hPa | 0 mm | - | 1 W/m² | - |
| 1777690730 | 18.33° C | 62% | 1013 hPa | 0 mm | - | 3 W/m² | - |
| 1777690427 | 18.89° C | 60% | 1013.7 hPa | 0 mm | - | 4 W/m² | - |
| 1777690125 | 18.89° C | 61% | 1013.5 hPa | 0 mm | - | 7 W/m² | - |
| 1777689823 | 19.44° C | 60% | 1013.5 hPa | 0 mm | - | 10 W/m² | - |
| 1777689520 | 19.44° C | 60% | 1013.5 hPa | 0 mm | - | 14 W/m² | - |
| 1777689218 | 20° C | 60% | 1013.4 hPa | 0 mm | - | 18 W/m² | - |
| 1777688916 | 20° C | 60% | 1013.3 hPa | 0 mm | - | 22 W/m² | - |
| 1777688612 | 20.56° C | 58% | 1013.3 hPa | 0 mm | - | 27 W/m² | - |
| 1777688309 | 21.67° C | 56% | 1013.4 hPa | 0 mm | - | 34 W/m² | - |
| 1777688006 | 21.67° C | 56% | 1013.4 hPa | 0 mm | - | 47 W/m² | - |
* Rain latest hour (hover to see other rain measurements)
** Current wind speed in m/s (hover to see current wind gust speed)